sensor_id;sensor_type;location;lat;lon;timestamp;P1;durP1;ratioP1;P2;durP2;ratioP2
59486;SDS011;45298;54.918;73.504;2023-07-31T00:00:57;6.85;;;4.30;;
59486;SDS011;45298;54.918;73.504;2023-07-31T00:03:26;7.72;;;4.53;;
59486;SDS011;45298;54.918;73.504;2023-07-31T00:05:55;8.13;;;4.40;;
59486;SDS011;45298;54.918;73.504;2023-07-31T00:08:24;8.05;;;4.80;;
59486;SDS011;45298;54.918;73.504;2023-07-31T00:10:53;8.45;;;5.30;;
59486;SDS011;45298;54.918;73.504;2023-07-31T00:13:21;10.13;;;5.03;;
59486;SDS011;45298;54.918;73.504;2023-07-31T00:15:51;7.22;;;4.85;;
59486;SDS011;45298;54.918;73.504;2023-07-31T00:18:20;11.82;;;5.20;;
59486;SDS011;45298;54.918;73.504;2023-07-31T00:20:49;10.13;;;5.18;;
59486;SDS011;45298;54.918;73.504;2023-07-31T00:23:17;8.15;;;5.13;;
59486;SDS011;45298;54.918;73.504;2023-07-31T00:25:46;9.70;;;5.30;;
59486;SDS011;45298;54.918;73.504;2023-07-31T00:28:15;8.32;;;5.15;;
59486;SDS011;45298;54.918;73.504;2023-07-31T00:30:44;10.82;;;5.22;;
59486;SDS011;45298;54.918;73.504;2023-07-31T00:33:13;8.73;;;5.00;;
59486;SDS011;45298;54.918;73.504;2023-07-31T00:35:41;8.93;;;5.18;;
59486;SDS011;45298;54.918;73.504;2023-07-31T00:38:10;9.32;;;5.10;;
59486;SDS011;45298;54.918;73.504;2023-07-31T00:40:39;8.63;;;5.20;;
59486;SDS011;45298;54.918;73.504;2023-07-31T00:43:08;8.00;;;5.13;;
59486;SDS011;45298;54.918;73.504;2023-07-31T00:45:37;8.45;;;5.00;;
59486;SDS011;45298;54.918;73.504;2023-07-31T00:48:06;9.52;;;5.50;;
59486;SDS011;45298;54.918;73.504;2023-07-31T00:50:35;9.43;;;5.85;;
59486;SDS011;45298;54.918;73.504;2023-07-31T00:53:04;9.52;;;5.80;;
59486;SDS011;45298;54.918;73.504;2023-07-31T00:55:33;11.60;;;6.15;;
59486;SDS011;45298;54.918;73.504;2023-07-31T00:58:02;10.35;;;5.90;;
59486;SDS011;45298;54.918;73.504;2023-07-31T01:00:31;10.93;;;6.15;;
59486;SDS011;45298;54.918;73.504;2023-07-31T01:03:00;12.32;;;6.30;;
59486;SDS011;45298;54.918;73.504;2023-07-31T01:11:17;12.47;;;7.40;;
59486;SDS011;45298;54.918;73.504;2023-07-31T01:13:57;16.33;;;7.30;;
59486;SDS011;45298;54.918;73.504;2023-07-31T01:16:26;13.55;;;6.90;;
59486;SDS011;45298;54.918;73.504;2023-07-31T01:18:55;12.48;;;7.43;;
59486;SDS011;45298;54.918;73.504;2023-07-31T01:24:36;12.40;;;7.43;;
59486;SDS011;45298;54.918;73.504;2023-07-31T01:27:28;12.80;;;7.60;;
59486;SDS011;45298;54.918;73.504;2023-07-31T01:30:11;14.38;;;7.47;;
59486;SDS011;45298;54.918;73.504;2023-07-31T01:32:47;15.73;;;7.65;;
59486;SDS011;45298;54.918;73.504;2023-07-31T01:35:18;15.98;;;8.02;;
59486;SDS011;45298;54.918;73.504;2023-07-31T01:37:48;15.98;;;7.53;;
59486;SDS011;45298;54.918;73.504;2023-07-31T01:40:16;15.45;;;8.00;;
59486;SDS011;45298;54.918;73.504;2023-07-31T01:42:45;18.05;;;8.13;;
59486;SDS011;45298;54.918;73.504;2023-07-31T01:45:14;14.23;;;8.75;;
59486;SDS011;45298;54.918;73.504;2023-07-31T01:47:43;14.27;;;8.18;;
59486;SDS011;45298;54.918;73.504;2023-07-31T01:50:12;18.58;;;8.43;;
59486;SDS011;45298;54.918;73.504;2023-07-31T01:52:41;21.00;;;9.02;;
59486;SDS011;45298;54.918;73.504;2023-07-31T01:55:11;15.35;;;8.38;;
59486;SDS011;45298;54.918;73.504;2023-07-31T01:57:42;21.08;;;8.90;;
59486;SDS011;45298;54.918;73.504;2023-07-31T02:00:11;18.45;;;8.57;;
59486;SDS011;45298;54.918;73.504;2023-07-31T02:02:40;11.80;;;6.97;;
59486;SDS011;45298;54.918;73.504;2023-07-31T02:05:09;12.48;;;6.70;;
59486;SDS011;45298;54.918;73.504;2023-07-31T02:07:38;14.77;;;7.72;;
59486;SDS011;45298;54.918;73.504;2023-07-31T02:10:07;15.57;;;7.55;;
59486;SDS011;45298;54.918;73.504;2023-07-31T02:12:36;11.85;;;7.30;;
59486;SDS011;45298;54.918;73.504;2023-07-31T02:15:05;14.50;;;7.03;;
59486;SDS011;45298;54.918;73.504;2023-07-31T02:17:35;13.35;;;6.80;;
59486;SDS011;45298;54.918;73.504;2023-07-31T02:20:04;13.00;;;6.70;;
59486;SDS011;45298;54.918;73.504;2023-07-31T02:22:33;11.93;;;6.75;;
59486;SDS011;45298;54.918;73.504;2023-07-31T02:25:02;11.18;;;6.40;;
59486;SDS011;45298;54.918;73.504;2023-07-31T02:27:31;11.18;;;6.30;;
59486;SDS011;45298;54.918;73.504;2023-07-31T02:30:00;10.63;;;6.47;;
59486;SDS011;45298;54.918;73.504;2023-07-31T02:32:29;10.50;;;6.20;;
59486;SDS011;45298;54.918;73.504;2023-07-31T02:34:58;12.38;;;6.13;;
59486;SDS011;45298;54.918;73.504;2023-07-31T02:37:27;12.48;;;6.88;;
59486;SDS011;45298;54.918;73.504;2023-07-31T02:39:57;14.07;;;7.15;;
59486;SDS011;45298;54.918;73.504;2023-07-31T02:42:28;13.57;;;7.72;;
59486;SDS011;45298;54.918;73.504;2023-07-31T02:44:56;16.02;;;7.40;;
59486;SDS011;45298;54.918;73.504;2023-07-31T02:47:26;12.23;;;6.68;;
59486;SDS011;45298;54.918;73.504;2023-07-31T02:49:54;20.23;;;8.60;;
59486;SDS011;45298;54.918;73.504;2023-07-31T02:52:26;18.85;;;7.60;;
59486;SDS011;45298;54.918;73.504;2023-07-31T02:54:55;12.75;;;6.30;;
59486;SDS011;45298;54.918;73.504;2023-07-31T02:57:23;18.02;;;6.85;;
59486;SDS011;45298;54.918;73.504;2023-07-31T02:59:52;16.05;;;6.85;;
59486;SDS011;45298;54.918;73.504;2023-07-31T03:02:21;15.00;;;6.88;;
59486;SDS011;45298;54.918;73.504;2023-07-31T03:04:50;19.85;;;8.20;;
59486;SDS011;45298;54.918;73.504;2023-07-31T03:07:19;17.23;;;8.07;;
59486;SDS011;45298;54.918;73.504;2023-07-31T03:09:48;13.07;;;6.93;;
59486;SDS011;45298;54.918;73.504;2023-07-31T03:12:17;9.98;;;5.50;;
59486;SDS011;45298;54.918;73.504;2023-07-31T03:14:47;8.70;;;4.32;;
59486;SDS011;45298;54.918;73.504;2023-07-31T03:17:16;8.93;;;4.60;;
59486;SDS011;45298;54.918;73.504;2023-07-31T03:19:45;9.23;;;4.75;;
59486;SDS011;45298;54.918;73.504;2023-07-31T03:22:14;7.90;;;5.00;;
59486;SDS011;45298;54.918;73.504;2023-07-31T03:24:43;16.98;;;9.95;;
59486;SDS011;45298;54.918;73.504;2023-07-31T03:27:12;7.38;;;4.85;;
59486;SDS011;45298;54.918;73.504;2023-07-31T03:29:41;9.48;;;5.28;;
59486;SDS011;45298;54.918;73.504;2023-07-31T03:32:12;10.70;;;5.05;;
59486;SDS011;45298;54.918;73.504;2023-07-31T03:34:41;7.13;;;4.45;;
59486;SDS011;45298;54.918;73.504;2023-07-31T03:37:10;8.63;;;4.60;;
59486;SDS011;45298;54.918;73.504;2023-07-31T03:39:39;7.35;;;4.82;;
59486;SDS011;45298;54.918;73.504;2023-07-31T03:42:07;6.85;;;4.47;;
59486;SDS011;45298;54.918;73.504;2023-07-31T03:44:36;7.28;;;4.15;;
59486;SDS011;45298;54.918;73.504;2023-07-31T03:47:05;8.43;;;4.20;;
59486;SDS011;45298;54.918;73.504;2023-07-31T03:49:37;5.95;;;3.50;;
59486;SDS011;45298;54.918;73.504;2023-07-31T03:52:10;7.72;;;3.63;;
59486;SDS011;45298;54.918;73.504;2023-07-31T03:54:39;5.38;;;3.50;;
59486;SDS011;45298;54.918;73.504;2023-07-31T03:57:08;6.03;;;3.95;;
59486;SDS011;45298;54.918;73.504;2023-07-31T03:59:37;6.68;;;4.25;;
59486;SDS011;45298;54.918;73.504;2023-07-31T04:02:08;15.32;;;10.48;;
59486;SDS011;45298;54.918;73.504;2023-07-31T04:04:37;5.30;;;3.88;;
59486;SDS011;45298;54.918;73.504;2023-07-31T04:07:06;5.60;;;3.78;;
59486;SDS011;45298;54.918;73.504;2023-07-31T04:09:35;6.95;;;4.22;;
59486;SDS011;45298;54.918;73.504;2023-07-31T04:12:04;6.35;;;4.00;;
59486;SDS011;45298;54.918;73.504;2023-07-31T04:14:34;4.82;;;3.60;;
59486;SDS011;45298;54.918;73.504;2023-07-31T04:17:03;5.57;;;3.70;;
59486;SDS011;45298;54.918;73.504;2023-07-31T04:19:32;5.93;;;3.90;;
59486;SDS011;45298;54.918;73.504;2023-07-31T04:22:00;5.47;;;3.53;;
59486;SDS011;45298;54.918;73.504;2023-07-31T04:24:32;4.65;;;3.13;;
59486;SDS011;45298;54.918;73.504;2023-07-31T04:27:01;4.93;;;3.40;;
59486;SDS011;45298;54.918;73.504;2023-07-31T04:29:29;5.40;;;3.40;;
59486;SDS011;45298;54.918;73.504;2023-07-31T04:31:58;5.55;;;3.60;;
59486;SDS011;45298;54.918;73.504;2023-07-31T04:34:28;5.03;;;3.50;;
59486;SDS011;45298;54.918;73.504;2023-07-31T04:36:56;4.97;;;3.60;;
59486;SDS011;45298;54.918;73.504;2023-07-31T04:39:25;4.97;;;3.40;;
59486;SDS011;45298;54.918;73.504;2023-07-31T04:41:54;15.48;;;9.90;;
59486;SDS011;45298;54.918;73.504;2023-07-31T04:44:23;5.47;;;3.78;;
59486;SDS011;45298;54.918;73.504;2023-07-31T04:46:52;5.70;;;3.83;;
59486;SDS011;45298;54.918;73.504;2023-07-31T04:49:21;5.90;;;3.83;;
59486;SDS011;45298;54.918;73.504;2023-07-31T04:51:50;6.32;;;3.80;;
59486;SDS011;45298;54.918;73.504;2023-07-31T04:54:19;5.53;;;3.78;;
59486;SDS011;45298;54.918;73.504;2023-07-31T04:56:48;5.60;;;3.47;;
59486;SDS011;45298;54.918;73.504;2023-07-31T04:59:17;5.07;;;3.50;;
59486;SDS011;45298;54.918;73.504;2023-07-31T05:01:46;4.90;;;3.25;;
59486;SDS011;45298;54.918;73.504;2023-07-31T05:04:15;9.82;;;3.92;;
59486;SDS011;45298;54.918;73.504;2023-07-31T05:06:44;5.28;;;3.63;;
59486;SDS011;45298;54.918;73.504;2023-07-31T05:09:13;4.93;;;3.60;;
59486;SDS011;45298;54.918;73.504;2023-07-31T05:11:42;4.03;;;2.95;;
59486;SDS011;45298;54.918;73.504;2023-07-31T05:14:14;4.88;;;3.58;;
59486;SDS011;45298;54.918;73.504;2023-07-31T05:16:44;4.80;;;3.50;;
59486;SDS011;45298;54.918;73.504;2023-07-31T05:19:12;5.20;;;3.42;;
59486;SDS011;45298;54.918;73.504;2023-07-31T05:21:45;4.35;;;3.10;;
59486;SDS011;45298;54.918;73.504;2023-07-31T05:24:15;4.47;;;3.35;;
59486;SDS011;45298;54.918;73.504;2023-07-31T05:26:44;4.32;;;3.20;;
59486;SDS011;45298;54.918;73.504;2023-07-31T05:29:13;4.50;;;3.33;;
59486;SDS011;45298;54.918;73.504;2023-07-31T05:31:43;4.82;;;3.22;;
59486;SDS011;45298;54.918;73.504;2023-07-31T05:34:12;5.15;;;3.63;;
59486;SDS011;45298;54.918;73.504;2023-07-31T05:36:41;5.18;;;3.38;;
59486;SDS011;45298;54.918;73.504;2023-07-31T05:39:10;6.88;;;3.67;;
59486;SDS011;45298;54.918;73.504;2023-07-31T05:41:40;5.05;;;3.53;;
59486;SDS011;45298;54.918;73.504;2023-07-31T05:44:09;6.50;;;3.88;;
59486;SDS011;45298;54.918;73.504;2023-07-31T05:46:39;4.03;;;3.30;;
59486;SDS011;45298;54.918;73.504;2023-07-31T05:49:10;5.60;;;3.45;;
59486;SDS011;45298;54.918;73.504;2023-07-31T05:51:39;5.07;;;3.55;;
59486;SDS011;45298;54.918;73.504;2023-07-31T05:54:08;4.80;;;3.63;;
59486;SDS011;45298;54.918;73.504;2023-07-31T05:56:37;7.15;;;4.50;;
59486;SDS011;45298;54.918;73.504;2023-07-31T05:59:08;4.38;;;3.40;;
59486;SDS011;45298;54.918;73.504;2023-07-31T06:01:41;4.95;;;3.85;;
59486;SDS011;45298;54.918;73.504;2023-07-31T06:04:10;5.20;;;3.78;;
59486;SDS011;45298;54.918;73.504;2023-07-31T06:06:42;7.22;;;4.22;;
59486;SDS011;45298;54.918;73.504;2023-07-31T06:09:11;18.83;;;11.82;;
59486;SDS011;45298;54.918;73.504;2023-07-31T06:11:40;5.38;;;3.95;;
59486;SDS011;45298;54.918;73.504;2023-07-31T06:14:09;6.45;;;4.45;;
59486;SDS011;45298;54.918;73.504;2023-07-31T06:16:38;8.93;;;5.70;;
59486;SDS011;45298;54.918;73.504;2023-07-31T06:19:08;13.02;;;4.95;;
59486;SDS011;45298;54.918;73.504;2023-07-31T06:21:38;6.70;;;3.90;;
59486;SDS011;45298;54.918;73.504;2023-07-31T06:24:10;6.13;;;3.78;;
59486;SDS011;45298;54.918;73.504;2023-07-31T06:26:40;6.28;;;3.60;;
59486;SDS011;45298;54.918;73.504;2023-07-31T06:29:10;5.50;;;3.63;;
59486;SDS011;45298;54.918;73.504;2023-07-31T06:31:40;8.82;;;4.18;;
59486;SDS011;45298;54.918;73.504;2023-07-31T06:34:12;7.82;;;4.10;;
59486;SDS011;45298;54.918;73.504;2023-07-31T06:36:41;7.15;;;4.18;;
59486;SDS011;45298;54.918;73.504;2023-07-31T06:39:13;8.32;;;4.15;;
59486;SDS011;45298;54.918;73.504;2023-07-31T06:41:42;6.43;;;4.30;;
59486;SDS011;45298;54.918;73.504;2023-07-31T06:44:12;7.78;;;4.32;;
59486;SDS011;45298;54.918;73.504;2023-07-31T06:46:42;8.23;;;4.20;;
59486;SDS011;45298;54.918;73.504;2023-07-31T06:49:11;6.93;;;3.90;;
59486;SDS011;45298;54.918;73.504;2023-07-31T06:51:45;7.22;;;4.10;;
59486;SDS011;45298;54.918;73.504;2023-07-31T06:54:14;6.30;;;4.40;;
59486;SDS011;45298;54.918;73.504;2023-07-31T06:56:43;6.45;;;3.88;;
59486;SDS011;45298;54.918;73.504;2023-07-31T06:59:13;7.80;;;4.35;;
59486;SDS011;45298;54.918;73.504;2023-07-31T07:01:42;5.97;;;3.60;;
59486;SDS011;45298;54.918;73.504;2023-07-31T07:04:12;6.75;;;4.05;;
59486;SDS011;45298;54.918;73.504;2023-07-31T07:06:42;8.02;;;3.92;;
59486;SDS011;45298;54.918;73.504;2023-07-31T07:09:14;10.02;;;4.05;;
59486;SDS011;45298;54.918;73.504;2023-07-31T07:11:42;7.75;;;4.00;;
59486;SDS011;45298;54.918;73.504;2023-07-31T07:14:12;6.72;;;3.90;;
59486;SDS011;45298;54.918;73.504;2023-07-31T07:16:44;6.75;;;4.07;;
59486;SDS011;45298;54.918;73.504;2023-07-31T07:19:22;7.63;;;3.85;;
59486;SDS011;45298;54.918;73.504;2023-07-31T07:22:10;7.80;;;3.92;;
59486;SDS011;45298;54.918;73.504;2023-07-31T07:24:52;6.15;;;3.55;;
59486;SDS011;45298;54.918;73.504;2023-07-31T07:27:37;4.78;;;3.22;;
59486;SDS011;45298;54.918;73.504;2023-07-31T07:30:16;5.07;;;3.33;;
59486;SDS011;45298;54.918;73.504;2023-07-31T07:33:00;5.43;;;3.38;;
59486;SDS011;45298;54.918;73.504;2023-07-31T07:35:40;7.03;;;3.38;;
59486;SDS011;45298;54.918;73.504;2023-07-31T07:38:18;5.38;;;3.65;;
59486;SDS011;45298;54.918;73.504;2023-07-31T07:40:57;6.80;;;3.38;;
59486;SDS011;45298;54.918;73.504;2023-07-31T07:43:37;4.22;;;3.25;;
59486;SDS011;45298;54.918;73.504;2023-07-31T07:46:11;4.75;;;3.40;;
59486;SDS011;45298;54.918;73.504;2023-07-31T07:48:41;5.22;;;3.53;;
59486;SDS011;45298;54.918;73.504;2023-07-31T07:51:10;5.88;;;3.60;;
59486;SDS011;45298;54.918;73.504;2023-07-31T07:53:39;4.95;;;3.35;;
59486;SDS011;45298;54.918;73.504;2023-07-31T07:56:08;7.28;;;4.85;;
59486;SDS011;45298;54.918;73.504;2023-07-31T07:58:37;8.00;;;4.25;;
59486;SDS011;45298;54.918;73.504;2023-07-31T08:01:09;8.32;;;5.82;;
59486;SDS011;45298;54.918;73.504;2023-07-31T08:03:38;9.70;;;5.57;;
59486;SDS011;45298;54.918;73.504;2023-07-31T08:06:08;11.05;;;6.03;;
59486;SDS011;45298;54.918;73.504;2023-07-31T08:08:38;7.88;;;4.10;;
59486;SDS011;45298;54.918;73.504;2023-07-31T08:11:07;5.90;;;3.53;;
59486;SDS011;45298;54.918;73.504;2023-07-31T08:13:39;8.70;;;5.13;;
59486;SDS011;45298;54.918;73.504;2023-07-31T08:16:09;7.15;;;4.28;;
59486;SDS011;45298;54.918;73.504;2023-07-31T08:18:39;5.95;;;4.10;;
59486;SDS011;45298;54.918;73.504;2023-07-31T08:21:08;6.80;;;4.47;;
59486;SDS011;45298;54.918;73.504;2023-07-31T08:23:38;8.48;;;5.20;;
59486;SDS011;45298;54.918;73.504;2023-07-31T08:26:06;7.20;;;4.45;;
59486;SDS011;45298;54.918;73.504;2023-07-31T08:28:35;11.27;;;6.60;;
59486;SDS011;45298;54.918;73.504;2023-07-31T08:31:04;12.18;;;7.43;;
59486;SDS011;45298;54.918;73.504;2023-07-31T08:33:33;10.30;;;6.85;;
59486;SDS011;45298;54.918;73.504;2023-07-31T08:36:02;11.07;;;6.38;;
59486;SDS011;45298;54.918;73.504;2023-07-31T08:38:31;8.18;;;4.80;;
59486;SDS011;45298;54.918;73.504;2023-07-31T08:41:02;9.63;;;4.68;;
59486;SDS011;45298;54.918;73.504;2023-07-31T08:43:32;8.82;;;4.35;;
59486;SDS011;45298;54.918;73.504;2023-07-31T08:46:01;5.43;;;3.63;;
59486;SDS011;45298;54.918;73.504;2023-07-31T08:48:31;10.02;;;3.85;;
59486;SDS011;45298;54.918;73.504;2023-07-31T08:51:06;7.85;;;5.32;;
59486;SDS011;45298;54.918;73.504;2023-07-31T08:53:36;7.82;;;5.30;;
59486;SDS011;45298;54.918;73.504;2023-07-31T08:56:07;6.10;;;3.90;;
59486;SDS011;45298;54.918;73.504;2023-07-31T08:58:37;6.15;;;4.45;;
59486;SDS011;45298;54.918;73.504;2023-07-31T09:01:07;6.95;;;4.25;;
59486;SDS011;45298;54.918;73.504;2023-07-31T09:03:37;4.97;;;3.55;;
59486;SDS011;45298;54.918;73.504;2023-07-31T09:06:08;5.85;;;3.55;;
59486;SDS011;45298;54.918;73.504;2023-07-31T09:08:39;9.50;;;5.65;;
59486;SDS011;45298;54.918;73.504;2023-07-31T09:11:10;4.55;;;3.33;;
59486;SDS011;45298;54.918;73.504;2023-07-31T09:13:40;4.85;;;3.55;;
59486;SDS011;45298;54.918;73.504;2023-07-31T09:16:10;5.00;;;3.42;;
59486;SDS011;45298;54.918;73.504;2023-07-31T09:18:55;4.97;;;3.28;;
59486;SDS011;45298;54.918;73.504;2023-07-31T09:21:25;5.47;;;3.67;;
59486;SDS011;45298;54.918;73.504;2023-07-31T09:23:55;4.88;;;3.25;;
59486;SDS011;45298;54.918;73.504;2023-07-31T09:26:32;5.35;;;3.00;;
59486;SDS011;45298;54.918;73.504;2023-07-31T09:29:04;5.65;;;3.60;;
59486;SDS011;45298;54.918;73.504;2023-07-31T09:31:39;12.48;;;7.65;;
59486;SDS011;45298;54.918;73.504;2023-07-31T09:34:10;7.38;;;4.70;;
59486;SDS011;45298;54.918;73.504;2023-07-31T09:36:42;6.43;;;4.15;;
59486;SDS011;45298;54.918;73.504;2023-07-31T09:39:18;5.78;;;4.20;;
59486;SDS011;45298;54.918;73.504;2023-07-31T09:41:53;6.70;;;4.50;;
59486;SDS011;45298;54.918;73.504;2023-07-31T09:44:39;5.68;;;3.92;;
59486;SDS011;45298;54.918;73.504;2023-07-31T09:47:30;9.68;;;5.18;;
59486;SDS011;45298;54.918;73.504;2023-07-31T09:49:58;6.50;;;4.38;;
59486;SDS011;45298;54.918;73.504;2023-07-31T09:52:30;7.72;;;5.32;;
59486;SDS011;45298;54.918;73.504;2023-07-31T09:55:01;10.18;;;5.28;;
59486;SDS011;45298;54.918;73.504;2023-07-31T09:57:30;8.70;;;5.22;;
59486;SDS011;45298;54.918;73.504;2023-07-31T10:00:01;9.82;;;5.32;;
59486;SDS011;45298;54.918;73.504;2023-07-31T10:02:37;8.02;;;5.13;;
59486;SDS011;45298;54.918;73.504;2023-07-31T10:05:08;9.23;;;5.70;;
59486;SDS011;45298;54.918;73.504;2023-07-31T10:07:39;6.80;;;4.88;;
59486;SDS011;45298;54.918;73.504;2023-07-31T10:12:43;10.05;;;6.20;;
59486;SDS011;45298;54.918;73.504;2023-07-31T10:15:14;6.85;;;4.30;;
59486;SDS011;45298;54.918;73.504;2023-07-31T10:17:43;5.72;;;4.25;;
59486;SDS011;45298;54.918;73.504;2023-07-31T10:20:15;5.32;;;3.75;;
59486;SDS011;45298;54.918;73.504;2023-07-31T10:22:45;6.90;;;3.80;;
59486;SDS011;45298;54.918;73.504;2023-07-31T10:25:17;5.57;;;3.70;;
59486;SDS011;45298;54.918;73.504;2023-07-31T10:27:48;4.53;;;3.33;;
59486;SDS011;45298;54.918;73.504;2023-07-31T10:30:20;8.25;;;5.78;;
59486;SDS011;45298;54.918;73.504;2023-07-31T10:32:53;8.80;;;4.80;;
59486;SDS011;45298;54.918;73.504;2023-07-31T10:35:23;4.55;;;3.47;;
59486;SDS011;45298;54.918;73.504;2023-07-31T10:37:52;5.00;;;3.22;;
59486;SDS011;45298;54.918;73.504;2023-07-31T10:40:26;8.48;;;2.95;;
59486;SDS011;45298;54.918;73.504;2023-07-31T10:42:56;4.35;;;3.15;;
59486;SDS011;45298;54.918;73.504;2023-07-31T10:45:36;5.37;;;2.40;;
59486;SDS011;45298;54.918;73.504;2023-07-31T10:48:12;4.68;;;2.40;;
59486;SDS011;45298;54.918;73.504;2023-07-31T10:50:47;3.10;;;2.30;;
59486;SDS011;45298;54.918;73.504;2023-07-31T10:53:25;5.95;;;3.60;;
59486;SDS011;45298;54.918;73.504;2023-07-31T10:56:09;2.97;;;2.00;;
59486;SDS011;45298;54.918;73.504;2023-07-31T10:58:43;3.95;;;2.55;;
59486;SDS011;45298;54.918;73.504;2023-07-31T11:01:14;2.58;;;1.90;;
59486;SDS011;45298;54.918;73.504;2023-07-31T11:03:44;2.88;;;1.90;;
59486;SDS011;45298;54.918;73.504;2023-07-31T11:06:15;4.63;;;2.80;;
59486;SDS011;45298;54.918;73.504;2023-07-31T11:08:46;3.53;;;2.38;;
59486;SDS011;45298;54.918;73.504;2023-07-31T11:11:20;3.50;;;2.50;;
59486;SDS011;45298;54.918;73.504;2023-07-31T11:13:50;7.88;;;3.45;;
59486;SDS011;45298;54.918;73.504;2023-07-31T11:16:24;3.00;;;2.05;;
59486;SDS011;45298;54.918;73.504;2023-07-31T11:18:54;4.15;;;2.72;;
59486;SDS011;45298;54.918;73.504;2023-07-31T11:21:24;14.32;;;7.70;;
59486;SDS011;45298;54.918;73.504;2023-07-31T11:23:56;3.88;;;2.70;;
59486;SDS011;45298;54.918;73.504;2023-07-31T11:26:28;4.47;;;2.97;;
59486;SDS011;45298;54.918;73.504;2023-07-31T11:28:58;6.20;;;3.10;;
59486;SDS011;45298;54.918;73.504;2023-07-31T11:31:27;6.15;;;3.85;;
59486;SDS011;45298;54.918;73.504;2023-07-31T11:34:06;3.65;;;2.67;;
59486;SDS011;45298;54.918;73.504;2023-07-31T11:36:35;4.38;;;2.95;;
59486;SDS011;45298;54.918;73.504;2023-07-31T11:39:05;4.53;;;3.22;;
59486;SDS011;45298;54.918;73.504;2023-07-31T11:41:36;4.55;;;2.80;;
59486;SDS011;45298;54.918;73.504;2023-07-31T11:44:10;3.47;;;2.75;;
59486;SDS011;45298;54.918;73.504;2023-07-31T11:46:56;4.90;;;3.13;;
59486;SDS011;45298;54.918;73.504;2023-07-31T11:49:28;4.20;;;3.15;;
59486;SDS011;45298;54.918;73.504;2023-07-31T11:51:59;9.23;;;5.50;;
59486;SDS011;45298;54.918;73.504;2023-07-31T11:54:28;2.92;;;2.10;;
59486;SDS011;45298;54.918;73.504;2023-07-31T11:56:57;4.78;;;2.25;;
59486;SDS011;45298;54.918;73.504;2023-07-31T11:59:29;5.20;;;3.30;;
59486;SDS011;45298;54.918;73.504;2023-07-31T12:01:58;6.35;;;4.10;;
59486;SDS011;45298;54.918;73.504;2023-07-31T12:04:30;3.78;;;2.40;;
59486;SDS011;45298;54.918;73.504;2023-07-31T12:07:02;3.47;;;2.53;;
59486;SDS011;45298;54.918;73.504;2023-07-31T12:09:31;3.60;;;2.63;;
59486;SDS011;45298;54.918;73.504;2023-07-31T12:12:00;4.30;;;2.47;;
59486;SDS011;45298;54.918;73.504;2023-07-31T12:14:29;9.57;;;5.90;;
59486;SDS011;45298;54.918;73.504;2023-07-31T12:17:00;3.65;;;2.55;;
59486;SDS011;45298;54.918;73.504;2023-07-31T12:19:32;4.55;;;2.63;;
59486;SDS011;45298;54.918;73.504;2023-07-31T12:22:14;11.88;;;6.80;;
59486;SDS011;45298;54.918;73.504;2023-07-31T12:24:44;3.42;;;2.50;;
59486;SDS011;45298;54.918;73.504;2023-07-31T12:27:14;4.07;;;2.70;;
59486;SDS011;45298;54.918;73.504;2023-07-31T12:29:44;5.53;;;2.97;;
59486;SDS011;45298;54.918;73.504;2023-07-31T12:32:24;3.35;;;2.55;;
59486;SDS011;45298;54.918;73.504;2023-07-31T12:34:59;6.75;;;4.10;;
59486;SDS011;45298;54.918;73.504;2023-07-31T12:37:29;3.15;;;2.40;;
59486;SDS011;45298;54.918;73.504;2023-07-31T12:40:00;3.10;;;2.35;;
59486;SDS011;45298;54.918;73.504;2023-07-31T12:42:35;5.13;;;3.25;;
59486;SDS011;45298;54.918;73.504;2023-07-31T12:45:05;3.67;;;2.30;;
59486;SDS011;45298;54.918;73.504;2023-07-31T12:47:34;6.82;;;4.25;;
59486;SDS011;45298;54.918;73.504;2023-07-31T12:50:03;6.30;;;3.67;;
59486;SDS011;45298;54.918;73.504;2023-07-31T12:52:32;4.68;;;3.10;;
59486;SDS011;45298;54.918;73.504;2023-07-31T12:55:01;4.18;;;2.67;;
59486;SDS011;45298;54.918;73.504;2023-07-31T12:57:30;4.85;;;3.05;;
59486;SDS011;45298;54.918;73.504;2023-07-31T12:59:59;8.85;;;4.75;;
59486;SDS011;45298;54.918;73.504;2023-07-31T13:02:28;4.45;;;3.08;;
59486;SDS011;45298;54.918;73.504;2023-07-31T13:04:57;5.55;;;3.35;;
59486;SDS011;45298;54.918;73.504;2023-07-31T13:07:26;7.95;;;5.00;;
59486;SDS011;45298;54.918;73.504;2023-07-31T13:09:55;11.88;;;6.85;;
59486;SDS011;45298;54.918;73.504;2023-07-31T13:12:24;9.75;;;5.47;;
59486;SDS011;45298;54.918;73.504;2023-07-31T13:14:53;8.75;;;5.25;;
59486;SDS011;45298;54.918;73.504;2023-07-31T13:17:22;14.27;;;5.47;;
59486;SDS011;45298;54.918;73.504;2023-07-31T13:19:51;13.90;;;6.25;;
59486;SDS011;45298;54.918;73.504;2023-07-31T13:22:20;32.13;;;15.75;;
59486;SDS011;45298;54.918;73.504;2023-07-31T13:24:49;23.27;;;12.00;;
59486;SDS011;45298;54.918;73.504;2023-07-31T13:27:18;12.02;;;6.18;;
59486;SDS011;45298;54.918;73.504;2023-07-31T13:29:50;8.95;;;4.95;;
59486;SDS011;45298;54.918;73.504;2023-07-31T13:32:21;7.68;;;4.90;;
59486;SDS011;45298;54.918;73.504;2023-07-31T13:34:51;13.02;;;8.18;;
59486;SDS011;45298;54.918;73.504;2023-07-31T13:37:20;9.05;;;5.88;;
59486;SDS011;45298;54.918;73.504;2023-07-31T13:39:51;12.23;;;5.88;;
59486;SDS011;45298;54.918;73.504;2023-07-31T13:42:20;12.20;;;7.50;;
59486;SDS011;45298;54.918;73.504;2023-07-31T13:44:50;16.70;;;8.10;;
59486;SDS011;45298;54.918;73.504;2023-07-31T13:47:21;16.52;;;7.95;;
59486;SDS011;45298;54.918;73.504;2023-07-31T13:49:50;14.40;;;8.02;;
59486;SDS011;45298;54.918;73.504;2023-07-31T13:52:19;43.58;;;23.50;;
59486;SDS011;45298;54.918;73.504;2023-07-31T13:54:48;23.98;;;13.85;;
59486;SDS011;45298;54.918;73.504;2023-07-31T13:57:17;19.63;;;11.30;;
59486;SDS011;45298;54.918;73.504;2023-07-31T13:59:46;19.52;;;10.60;;
59486;SDS011;45298;54.918;73.504;2023-07-31T14:02:15;22.38;;;13.40;;
59486;SDS011;45298;54.918;73.504;2023-07-31T14:04:44;22.42;;;13.70;;
59486;SDS011;45298;54.918;73.504;2023-07-31T14:07:13;22.92;;;13.65;;
59486;SDS011;45298;54.918;73.504;2023-07-31T14:09:41;20.73;;;12.00;;
59486;SDS011;45298;54.918;73.504;2023-07-31T14:12:10;22.30;;;12.63;;
59486;SDS011;45298;54.918;73.504;2023-07-31T14:14:48;22.10;;;12.40;;
59486;SDS011;45298;54.918;73.504;2023-07-31T14:17:17;24.05;;;12.40;;
59486;SDS011;45298;54.918;73.504;2023-07-31T14:19:46;21.55;;;12.05;;
59486;SDS011;45298;54.918;73.504;2023-07-31T14:22:26;20.75;;;11.30;;
59486;SDS011;45298;54.918;73.504;2023-07-31T14:24:56;20.00;;;11.43;;
59486;SDS011;45298;54.918;73.504;2023-07-31T14:27:25;21.00;;;11.57;;
59486;SDS011;45298;54.918;73.504;2023-07-31T14:29:54;25.73;;;12.65;;
59486;SDS011;45298;54.918;73.504;2023-07-31T14:32:23;24.08;;;12.85;;
59486;SDS011;45298;54.918;73.504;2023-07-31T14:34:53;24.02;;;13.05;;
59486;SDS011;45298;54.918;73.504;2023-07-31T14:37:25;16.95;;;9.48;;
59486;SDS011;45298;54.918;73.504;2023-07-31T14:39:55;17.02;;;9.75;;
59486;SDS011;45298;54.918;73.504;2023-07-31T14:42:25;15.88;;;9.90;;
59486;SDS011;45298;54.918;73.504;2023-07-31T14:44:54;16.67;;;9.07;;
59486;SDS011;45298;54.918;73.504;2023-07-31T14:47:23;19.27;;;9.82;;
59486;SDS011;45298;54.918;73.504;2023-07-31T14:49:52;21.15;;;10.70;;
59486;SDS011;45298;54.918;73.504;2023-07-31T14:52:21;29.15;;;18.05;;
59486;SDS011;45298;54.918;73.504;2023-07-31T14:54:50;25.63;;;15.48;;
59486;SDS011;45298;54.918;73.504;2023-07-31T14:57:23;24.52;;;13.45;;
59486;SDS011;45298;54.918;73.504;2023-07-31T14:59:54;18.75;;;10.88;;